sensor_id;sensor_type;location;lat;lon;timestamp;temperature;humidity
34829;DHT22;21042;47.620;12.188;2023-03-25T00:01:13;7.60;99.90
34829;DHT22;21042;47.620;12.188;2023-03-25T00:03:41;7.60;99.90
34829;DHT22;21042;47.620;12.188;2023-03-25T00:06:09;7.60;99.90
34829;DHT22;21042;47.620;12.188;2023-03-25T00:08:37;7.50;99.90
34829;DHT22;21042;47.620;12.188;2023-03-25T00:11:04;7.50;99.90
34829;DHT22;21042;47.620;12.188;2023-03-25T00:13:32;7.50;99.90
34829;DHT22;21042;47.620;12.188;2023-03-25T00:16:00;7.50;99.90
34829;DHT22;21042;47.620;12.188;2023-03-25T00:18:28;7.50;99.90
34829;DHT22;21042;47.620;12.188;2023-03-25T00:21:03;7.40;99.90
34829;DHT22;21042;47.620;12.188;2023-03-25T00:23:30;7.40;99.90
34829;DHT22;21042;47.620;12.188;2023-03-25T00:25:57;7.40;99.90
34829;DHT22;21042;47.620;12.188;2023-03-25T00:28:31;7.40;99.90
34829;DHT22;21042;47.620;12.188;2023-03-25T00:31:03;7.30;99.90
34829;DHT22;21042;47.620;12.188;2023-03-25T00:33:30;7.30;99.90
34829;DHT22;21042;47.620;12.188;2023-03-25T00:35:58;7.20;99.90
34829;DHT22;21042;47.620;12.188;2023-03-25T00:38:27;7.20;99.90
34829;DHT22;21042;47.620;12.188;2023-03-25T00:41:14;7.20;99.90
34829;DHT22;21042;47.620;12.188;2023-03-25T00:43:50;7.10;99.90
34829;DHT22;21042;47.620;12.188;2023-03-25T00:46:18;7.10;99.90
34829;DHT22;21042;47.620;12.188;2023-03-25T00:48:46;7.10;99.90
34829;DHT22;21042;47.620;12.188;2023-03-25T00:51:13;7.10;99.90
34829;DHT22;21042;47.620;12.188;2023-03-25T00:53:45;7.00;99.90
34829;DHT22;21042;47.620;12.188;2023-03-25T00:56:11;6.90;99.90
34829;DHT22;21042;47.620;12.188;2023-03-25T00:58:39;6.80;99.90
34829;DHT22;21042;47.620;12.188;2023-03-25T01:01:15;6.80;99.90
34829;DHT22;21042;47.620;12.188;2023-03-25T01:03:43;6.80;99.90
34829;DHT22;21042;47.620;12.188;2023-03-25T01:06:11;6.80;99.90
34829;DHT22;21042;47.620;12.188;2023-03-25T01:08:40;6.80;99.90
34829;DHT22;21042;47.620;12.188;2023-03-25T01:11:17;6.80;99.90
34829;DHT22;21042;47.620;12.188;2023-03-25T01:13:45;6.70;99.90
34829;DHT22;21042;47.620;12.188;2023-03-25T01:16:11;6.70;99.90
34829;DHT22;21042;47.620;12.188;2023-03-25T01:18:38;6.60;99.90
34829;DHT22;21042;47.620;12.188;2023-03-25T01:21:06;6.60;99.90
34829;DHT22;21042;47.620;12.188;2023-03-25T01:23:33;6.60;99.90
34829;DHT22;21042;47.620;12.188;2023-03-25T01:26:00;6.60;99.90
34829;DHT22;21042;47.620;12.188;2023-03-25T01:28:27;6.60;99.90
34829;DHT22;21042;47.620;12.188;2023-03-25T01:31:01;6.40;99.90
34829;DHT22;21042;47.620;12.188;2023-03-25T01:33:28;6.30;99.90
34829;DHT22;21042;47.620;12.188;2023-03-25T01:35:54;6.40;99.90
34829;DHT22;21042;47.620;12.188;2023-03-25T01:38:21;6.40;99.90
34829;DHT22;21042;47.620;12.188;2023-03-25T01:40:52;6.40;99.90
34829;DHT22;21042;47.620;12.188;2023-03-25T01:43:20;6.40;99.90
34829;DHT22;21042;47.620;12.188;2023-03-25T01:45:47;6.40;99.90
34829;DHT22;21042;47.620;12.188;2023-03-25T01:48:18;6.40;99.90
34829;DHT22;21042;47.620;12.188;2023-03-25T01:50:56;6.40;99.90
34829;DHT22;21042;47.620;12.188;2023-03-25T01:53:27;6.40;99.90
34829;DHT22;21042;47.620;12.188;2023-03-25T01:55:59;6.40;99.90
34829;DHT22;21042;47.620;12.188;2023-03-25T01:58:28;6.50;99.90
34829;DHT22;21042;47.620;12.188;2023-03-25T02:00:56;6.50;99.90
34829;DHT22;21042;47.620;12.188;2023-03-25T02:03:23;6.50;99.90
34829;DHT22;21042;47.620;12.188;2023-03-25T02:06:13;6.50;99.90
34829;DHT22;21042;47.620;12.188;2023-03-25T02:08:41;6.50;99.90
34829;DHT22;21042;47.620;12.188;2023-03-25T02:11:09;6.60;99.90
34829;DHT22;21042;47.620;12.188;2023-03-25T02:13:38;6.50;99.90
34829;DHT22;21042;47.620;12.188;2023-03-25T02:16:14;6.60;99.90
34829;DHT22;21042;47.620;12.188;2023-03-25T02:27:21;6.10;99.90
34829;DHT22;21042;47.620;12.188;2023-03-25T02:41:22;6.00;99.90
34829;DHT22;21042;47.620;12.188;2023-03-25T02:44:06;6.00;99.90
34829;DHT22;21042;47.620;12.188;2023-03-25T02:46:35;6.00;99.90
34829;DHT22;21042;47.620;12.188;2023-03-25T02:49:14;6.00;99.90
34829;DHT22;21042;47.620;12.188;2023-03-25T02:51:52;6.00;99.90
34829;DHT22;21042;47.620;12.188;2023-03-25T02:54:21;6.10;99.90
34829;DHT22;21042;47.620;12.188;2023-03-25T02:56:49;6.10;99.90
34829;DHT22;21042;47.620;12.188;2023-03-25T02:59:17;6.00;99.90
34829;DHT22;21042;47.620;12.188;2023-03-25T03:18:42;6.00;99.90
34829;DHT22;21042;47.620;12.188;2023-03-25T03:21:25;5.90;99.90
34829;DHT22;21042;47.620;12.188;2023-03-25T03:24:04;5.90;99.90
34829;DHT22;21042;47.620;12.188;2023-03-25T03:26:37;6.00;99.90
34829;DHT22;21042;47.620;12.188;2023-03-25T03:29:18;6.00;99.90
34829;DHT22;21042;47.620;12.188;2023-03-25T03:31:58;6.00;99.90
34829;DHT22;21042;47.620;12.188;2023-03-25T03:34:51;6.00;99.90
34829;DHT22;21042;47.620;12.188;2023-03-25T03:37:23;6.00;99.90
34829;DHT22;21042;47.620;12.188;2023-03-25T03:39:53;6.00;99.90
34829;DHT22;21042;47.620;12.188;2023-03-25T03:42:28;6.00;99.90
34829;DHT22;21042;47.620;12.188;2023-03-25T03:45:05;6.00;99.90
34829;DHT22;21042;47.620;12.188;2023-03-25T03:47:39;6.00;99.90
34829;DHT22;21042;47.620;12.188;2023-03-25T03:50:12;6.00;99.90
34829;DHT22;21042;47.620;12.188;2023-03-25T03:52:45;6.00;99.90
34829;DHT22;21042;47.620;12.188;2023-03-25T03:55:25;6.00;99.90
34829;DHT22;21042;47.620;12.188;2023-03-25T03:57:59;6.00;99.90
34829;DHT22;21042;47.620;12.188;2023-03-25T04:01:05;6.10;99.90
34829;DHT22;21042;47.620;12.188;2023-03-25T04:06:36;6.10;99.90
34829;DHT22;21042;47.620;12.188;2023-03-25T04:09:23;6.10;99.90
34829;DHT22;21042;47.620;12.188;2023-03-25T04:11:58;6.10;99.90
34829;DHT22;21042;47.620;12.188;2023-03-25T04:14:26;6.10;99.90
34829;DHT22;21042;47.620;12.188;2023-03-25T04:16:54;6.10;99.90
34829;DHT22;21042;47.620;12.188;2023-03-25T04:19:20;6.10;99.90
34829;DHT22;21042;47.620;12.188;2023-03-25T04:21:47;6.20;99.90
34829;DHT22;21042;47.620;12.188;2023-03-25T04:24:15;6.20;99.90
34829;DHT22;21042;47.620;12.188;2023-03-25T04:26:45;6.20;99.90
34829;DHT22;21042;47.620;12.188;2023-03-25T04:29:13;6.30;99.90
34829;DHT22;21042;47.620;12.188;2023-03-25T04:31:40;6.40;99.90
34829;DHT22;21042;47.620;12.188;2023-03-25T04:34:12;6.40;99.90
34829;DHT22;21042;47.620;12.188;2023-03-25T04:36:40;6.40;99.90
34829;DHT22;21042;47.620;12.188;2023-03-25T04:39:09;6.40;99.90
34829;DHT22;21042;47.620;12.188;2023-03-25T04:41:38;6.40;99.90
34829;DHT22;21042;47.620;12.188;2023-03-25T04:44:05;6.40;99.90
34829;DHT22;21042;47.620;12.188;2023-03-25T04:46:34;6.40;99.90
34829;DHT22;21042;47.620;12.188;2023-03-25T04:49:05;6.40;99.90
34829;DHT22;21042;47.620;12.188;2023-03-25T04:51:32;6.30;99.90
34829;DHT22;21042;47.620;12.188;2023-03-25T04:53:59;6.30;99.90
34829;DHT22;21042;47.620;12.188;2023-03-25T04:56:26;6.30;99.90
34829;DHT22;21042;47.620;12.188;2023-03-25T04:58:53;6.40;99.90
34829;DHT22;21042;47.620;12.188;2023-03-25T05:01:25;6.40;99.90
34829;DHT22;21042;47.620;12.188;2023-03-25T05:04:00;6.50;99.90
34829;DHT22;21042;47.620;12.188;2023-03-25T05:06:36;6.50;99.90
34829;DHT22;21042;47.620;12.188;2023-03-25T05:09:08;6.50;99.90
34829;DHT22;21042;47.620;12.188;2023-03-25T05:11:36;6.50;99.90
34829;DHT22;21042;47.620;12.188;2023-03-25T05:14:05;6.60;99.90
34829;DHT22;21042;47.620;12.188;2023-03-25T05:16:33;6.60;99.90
34829;DHT22;21042;47.620;12.188;2023-03-25T05:19:00;6.60;99.90
34829;DHT22;21042;47.620;12.188;2023-03-25T05:21:29;6.50;99.90
34829;DHT22;21042;47.620;12.188;2023-03-25T05:23:57;6.60;99.90
34829;DHT22;21042;47.620;12.188;2023-03-25T05:26:24;6.60;99.90
34829;DHT22;21042;47.620;12.188;2023-03-25T05:28:51;6.60;99.90
34829;DHT22;21042;47.620;12.188;2023-03-25T05:31:22;6.60;99.90
34829;DHT22;21042;47.620;12.188;2023-03-25T05:33:49;6.50;99.90
34829;DHT22;21042;47.620;12.188;2023-03-25T05:36:17;6.50;99.90
34829;DHT22;21042;47.620;12.188;2023-03-25T05:38:43;6.40;99.90
34829;DHT22;21042;47.620;12.188;2023-03-25T05:41:14;6.40;99.90
34829;DHT22;21042;47.620;12.188;2023-03-25T05:43:43;6.40;99.90
34829;DHT22;21042;47.620;12.188;2023-03-25T05:46:14;6.40;99.90
34829;DHT22;21042;47.620;12.188;2023-03-25T05:48:41;6.40;99.90
34829;DHT22;21042;47.620;12.188;2023-03-25T05:51:12;6.40;99.90
34829;DHT22;21042;47.620;12.188;2023-03-25T05:53:45;6.50;99.90
34829;DHT22;21042;47.620;12.188;2023-03-25T05:56:16;6.60;99.90
34829;DHT22;21042;47.620;12.188;2023-03-25T05:58:46;6.60;99.90
34829;DHT22;21042;47.620;12.188;2023-03-25T06:01:13;6.70;99.90
34829;DHT22;21042;47.620;12.188;2023-03-25T06:03:59;6.70;99.90
34829;DHT22;21042;47.620;12.188;2023-03-25T06:06:30;6.70;99.90
34829;DHT22;21042;47.620;12.188;2023-03-25T06:09:00;6.70;99.90
34829;DHT22;21042;47.620;12.188;2023-03-25T06:11:27;6.70;99.90
34829;DHT22;21042;47.620;12.188;2023-03-25T06:13:54;6.70;99.90
34829;DHT22;21042;47.620;12.188;2023-03-25T06:16:24;6.70;99.90
34829;DHT22;21042;47.620;12.188;2023-03-25T06:18:56;6.70;99.90
34829;DHT22;21042;47.620;12.188;2023-03-25T06:21:30;6.70;99.90
34829;DHT22;21042;47.620;12.188;2023-03-25T06:23:58;6.70;99.90
34829;DHT22;21042;47.620;12.188;2023-03-25T06:26:27;6.70;99.90
34829;DHT22;21042;47.620;12.188;2023-03-25T06:28:54;6.80;99.90
34829;DHT22;21042;47.620;12.188;2023-03-25T06:31:23;6.90;99.90
34829;DHT22;21042;47.620;12.188;2023-03-25T06:33:53;7.00;99.90
34829;DHT22;21042;47.620;12.188;2023-03-25T06:36:20;7.00;99.90
34829;DHT22;21042;47.620;12.188;2023-03-25T06:38:48;6.90;99.90
34829;DHT22;21042;47.620;12.188;2023-03-25T06:41:18;6.90;99.90
34829;DHT22;21042;47.620;12.188;2023-03-25T06:43:52;7.00;99.90
34829;DHT22;21042;47.620;12.188;2023-03-25T06:46:18;7.00;99.90
34829;DHT22;21042;47.620;12.188;2023-03-25T06:49:08;7.00;99.90
34829;DHT22;21042;47.620;12.188;2023-03-25T06:51:35;7.00;99.90
34829;DHT22;21042;47.620;12.188;2023-03-25T06:54:02;6.90;99.90
34829;DHT22;21042;47.620;12.188;2023-03-25T06:56:29;7.00;99.90
34829;DHT22;21042;47.620;12.188;2023-03-25T06:58:55;7.00;99.90
34829;DHT22;21042;47.620;12.188;2023-03-25T07:01:22;7.10;99.90
34829;DHT22;21042;47.620;12.188;2023-03-25T07:03:49;7.00;99.90
34829;DHT22;21042;47.620;12.188;2023-03-25T07:06:19;7.00;99.90
34829;DHT22;21042;47.620;12.188;2023-03-25T07:08:47;7.10;99.90
34829;DHT22;21042;47.620;12.188;2023-03-25T07:11:14;7.10;99.90
34829;DHT22;21042;47.620;12.188;2023-03-25T07:13:41;7.20;99.90
34829;DHT22;21042;47.620;12.188;2023-03-25T07:16:08;7.40;99.90
34829;DHT22;21042;47.620;12.188;2023-03-25T07:18:40;7.50;99.90
34829;DHT22;21042;47.620;12.188;2023-03-25T07:21:06;7.70;99.90
34829;DHT22;21042;47.620;12.188;2023-03-25T07:23:33;7.90;99.90
34829;DHT22;21042;47.620;12.188;2023-03-25T07:26:00;8.00;99.90
34829;DHT22;21042;47.620;12.188;2023-03-25T07:28:27;8.10;99.90
34829;DHT22;21042;47.620;12.188;2023-03-25T07:30:53;8.20;99.90
34829;DHT22;21042;47.620;12.188;2023-03-25T07:33:20;8.30;99.90
34829;DHT22;21042;47.620;12.188;2023-03-25T07:35:47;8.40;99.90
34829;DHT22;21042;47.620;12.188;2023-03-25T07:38:13;8.60;99.90
34829;DHT22;21042;47.620;12.188;2023-03-25T07:40:40;8.70;99.90
34829;DHT22;21042;47.620;12.188;2023-03-25T07:43:07;8.80;99.90
34829;DHT22;21042;47.620;12.188;2023-03-25T07:45:53;8.90;99.90
34829;DHT22;21042;47.620;12.188;2023-03-25T07:48:19;8.80;99.90
34829;DHT22;21042;47.620;12.188;2023-03-25T07:50:50;8.70;99.90
34829;DHT22;21042;47.620;12.188;2023-03-25T07:53:17;8.80;99.90
34829;DHT22;21042;47.620;12.188;2023-03-25T07:55:44;8.80;99.90
34829;DHT22;21042;47.620;12.188;2023-03-25T07:58:11;9.00;99.90
34829;DHT22;21042;47.620;12.188;2023-03-25T08:00:38;9.10;99.90
34829;DHT22;21042;47.620;12.188;2023-03-25T08:03:05;9.10;99.90
34829;DHT22;21042;47.620;12.188;2023-03-25T08:05:32;9.40;99.90
34829;DHT22;21042;47.620;12.188;2023-03-25T08:07:58;9.60;99.90
34829;DHT22;21042;47.620;12.188;2023-03-25T08:10:26;9.80;99.90
34829;DHT22;21042;47.620;12.188;2023-03-25T08:12:53;9.90;99.90
34829;DHT22;21042;47.620;12.188;2023-03-25T08:15:19;9.80;99.90
34829;DHT22;21042;47.620;12.188;2023-03-25T08:17:50;9.60;99.90
34829;DHT22;21042;47.620;12.188;2023-03-25T08:20:20;9.50;99.90
34829;DHT22;21042;47.620;12.188;2023-03-25T08:22:47;9.30;99.90
34829;DHT22;21042;47.620;12.188;2023-03-25T08:25:13;9.20;99.90
34829;DHT22;21042;47.620;12.188;2023-03-25T08:27:40;9.10;99.90
34829;DHT22;21042;47.620;12.188;2023-03-25T08:30:07;9.10;99.90
34829;DHT22;21042;47.620;12.188;2023-03-25T08:32:36;9.40;99.90
34829;DHT22;21042;47.620;12.188;2023-03-25T08:35:04;9.70;99.90
34829;DHT22;21042;47.620;12.188;2023-03-25T08:37:31;10.00;99.90
34829;DHT22;21042;47.620;12.188;2023-03-25T08:40:04;10.30;99.90
34829;DHT22;21042;47.620;12.188;2023-03-25T08:42:35;10.50;99.90
34829;DHT22;21042;47.620;12.188;2023-03-25T08:45:03;10.40;99.90
34829;DHT22;21042;47.620;12.188;2023-03-25T08:47:31;10.50;99.90
34829;DHT22;21042;47.620;12.188;2023-03-25T08:49:58;10.70;99.90
34829;DHT22;21042;47.620;12.188;2023-03-25T08:52:24;10.90;99.90
34829;DHT22;21042;47.620;12.188;2023-03-25T08:54:51;11.10;99.90
34829;DHT22;21042;47.620;12.188;2023-03-25T08:57:18;11.30;99.90
34829;DHT22;21042;47.620;12.188;2023-03-25T08:59:44;11.50;99.90
34829;DHT22;21042;47.620;12.188;2023-03-25T09:02:11;11.70;99.90
34829;DHT22;21042;47.620;12.188;2023-03-25T09:04:38;11.60;99.90
34829;DHT22;21042;47.620;12.188;2023-03-25T09:07:05;11.30;99.90
34829;DHT22;21042;47.620;12.188;2023-03-25T09:09:41;11.30;99.90
34829;DHT22;21042;47.620;12.188;2023-03-25T09:12:08;11.30;99.90
34829;DHT22;21042;47.620;12.188;2023-03-25T09:14:35;11.60;99.90
34829;DHT22;21042;47.620;12.188;2023-03-25T09:17:02;11.90;99.90
34829;DHT22;21042;47.620;12.188;2023-03-25T09:19:29;12.10;99.90
34829;DHT22;21042;47.620;12.188;2023-03-25T09:21:56;12.30;99.90
34829;DHT22;21042;47.620;12.188;2023-03-25T09:24:23;12.60;99.90
34829;DHT22;21042;47.620;12.188;2023-03-25T09:26:50;12.90;99.90
34829;DHT22;21042;47.620;12.188;2023-03-25T09:29:17;12.80;99.90
34829;DHT22;21042;47.620;12.188;2023-03-25T09:31:43;13.00;99.90
34829;DHT22;21042;47.620;12.188;2023-03-25T09:34:10;13.10;99.90
34829;DHT22;21042;47.620;12.188;2023-03-25T09:36:37;12.80;99.90
34829;DHT22;21042;47.620;12.188;2023-03-25T09:39:04;12.70;99.90
34829;DHT22;21042;47.620;12.188;2023-03-25T09:42:07;12.80;99.90
34829;DHT22;21042;47.620;12.188;2023-03-25T09:47:10;12.60;99.90
34829;DHT22;21042;47.620;12.188;2023-03-25T09:49:44;12.70;99.90
34829;DHT22;21042;47.620;12.188;2023-03-25T09:52:17;12.70;98.90
34829;DHT22;21042;47.620;12.188;2023-03-25T09:54:51;12.90;99.90
34829;DHT22;21042;47.620;12.188;2023-03-25T09:57:26;13.10;99.90
34829;DHT22;21042;47.620;12.188;2023-03-25T09:59:56;13.10;99.90
34829;DHT22;21042;47.620;12.188;2023-03-25T10:02:42;13.10;99.90
34829;DHT22;21042;47.620;12.188;2023-03-25T10:08:19;13.30;99.90
34829;DHT22;21042;47.620;12.188;2023-03-25T10:11:08;13.40;99.40
34829;DHT22;21042;47.620;12.188;2023-03-25T10:13:46;13.50;98.50
34829;DHT22;21042;47.620;12.188;2023-03-25T10:16:29;13.40;97.90
34829;DHT22;21042;47.620;12.188;2023-03-25T10:19:15;13.50;99.20
34829;DHT22;21042;47.620;12.188;2023-03-25T10:21:59;13.70;98.40
34829;DHT22;21042;47.620;12.188;2023-03-25T10:24:31;13.90;96.00
34829;DHT22;21042;47.620;12.188;2023-03-25T10:27:07;14.10;95.00
34829;DHT22;21042;47.620;12.188;2023-03-25T10:29:46;14.30;96.00
34829;DHT22;21042;47.620;12.188;2023-03-25T10:34:56;14.70;99.20
34829;DHT22;21042;47.620;12.188;2023-03-25T10:37:27;14.50;99.20
34829;DHT22;21042;47.620;12.188;2023-03-25T10:40:08;14.40;98.40
34829;DHT22;21042;47.620;12.188;2023-03-25T10:42:39;14.30;98.00
34829;DHT22;21042;47.620;12.188;2023-03-25T10:45:12;14.10;98.70
34829;DHT22;21042;47.620;12.188;2023-03-25T10:47:42;13.90;99.40
34829;DHT22;21042;47.620;12.188;2023-03-25T10:50:17;14.10;98.80
34829;DHT22;21042;47.620;12.188;2023-03-25T10:52:47;14.10;99.50
34829;DHT22;21042;47.620;12.188;2023-03-25T10:55:22;14.10;97.60
34829;DHT22;21042;47.620;12.188;2023-03-25T10:57:51;14.30;98.10
34829;DHT22;21042;47.620;12.188;2023-03-25T11:00:21;14.40;98.20
34829;DHT22;21042;47.620;12.188;2023-03-25T11:02:50;14.20;97.50
34829;DHT22;21042;47.620;12.188;2023-03-25T11:05:20;14.10;97.50
34829;DHT22;21042;47.620;12.188;2023-03-25T11:07:52;13.90;97.70
34829;DHT22;21042;47.620;12.188;2023-03-25T11:10:25;14.20;99.80
34829;DHT22;21042;47.620;12.188;2023-03-25T11:12:53;14.30;98.30
34829;DHT22;21042;47.620;12.188;2023-03-25T11:15:25;14.40;99.90
34829;DHT22;21042;47.620;12.188;2023-03-25T11:20:34;14.30;96.50
34829;DHT22;21042;47.620;12.188;2023-03-25T11:23:11;14.10;95.40
34829;DHT22;21042;47.620;12.188;2023-03-25T11:25:40;14.10;97.10
34829;DHT22;21042;47.620;12.188;2023-03-25T11:28:18;14.20;95.40
34829;DHT22;21042;47.620;12.188;2023-03-25T11:33:32;14.20;91.70
34829;DHT22;21042;47.620;12.188;2023-03-25T11:38:39;14.50;90.40
34829;DHT22;21042;47.620;12.188;2023-03-25T11:41:06;14.40;91.30
34829;DHT22;21042;47.620;12.188;2023-03-25T11:43:36;14.40;91.90
34829;DHT22;21042;47.620;12.188;2023-03-25T11:46:11;14.50;90.80
34829;DHT22;21042;47.620;12.188;2023-03-25T11:48:40;14.20;89.70
34829;DHT22;21042;47.620;12.188;2023-03-25T11:51:13;14.30;90.30
34829;DHT22;21042;47.620;12.188;2023-03-25T11:54:15;14.50;90.40
34829;DHT22;21042;47.620;12.188;2023-03-25T11:56:43;14.50;90.00
34829;DHT22;21042;47.620;12.188;2023-03-25T11:59:35;13.90;87.40
34829;DHT22;21042;47.620;12.188;2023-03-25T12:02:11;13.90;90.50
34829;DHT22;21042;47.620;12.188;2023-03-25T12:05:03;13.90;91.20
34829;DHT22;21042;47.620;12.188;2023-03-25T12:07:42;14.10;90.20
34829;DHT22;21042;47.620;12.188;2023-03-25T12:10:18;14.30;90.60
34829;DHT22;21042;47.620;12.188;2023-03-25T12:15:34;14.30;90.10
34829;DHT22;21042;47.620;12.188;2023-03-25T12:24:17;14.80;91.50
34829;DHT22;21042;47.620;12.188;2023-03-25T12:26:56;14.80;91.80
34829;DHT22;21042;47.620;12.188;2023-03-25T12:29:37;15.20;91.40
34829;DHT22;21042;47.620;12.188;2023-03-25T12:35:32;15.10;90.50
34829;DHT22;21042;47.620;12.188;2023-03-25T12:40:57;14.70;88.90
34829;DHT22;21042;47.620;12.188;2023-03-25T12:46:51;14.70;90.60
34829;DHT22;21042;47.620;12.188;2023-03-25T12:55:19;14.30;90.20
34829;DHT22;21042;47.620;12.188;2023-03-25T13:00:56;13.90;91.20
34829;DHT22;21042;47.620;12.188;2023-03-25T13:09:17;12.60;95.40
34829;DHT22;21042;47.620;12.188;2023-03-25T13:12:16;12.10;97.90
34829;DHT22;21042;47.620;12.188;2023-03-25T13:15:05;11.50;99.90
34829;DHT22;21042;47.620;12.188;2023-03-25T13:17:54;11.90;99.90
34829;DHT22;21042;47.620;12.188;2023-03-25T13:20:25;12.50;99.90
34829;DHT22;21042;47.620;12.188;2023-03-25T13:22:58;12.80;99.90
34829;DHT22;21042;47.620;12.188;2023-03-25T13:25:34;12.80;99.90
34829;DHT22;21042;47.620;12.188;2023-03-25T13:28:12;13.00;99.90
34829;DHT22;21042;47.620;12.188;2023-03-25T13:30:43;12.60;99.90
34829;DHT22;21042;47.620;12.188;2023-03-25T13:33:15;12.60;99.90
34829;DHT22;21042;47.620;12.188;2023-03-25T13:38:33;12.70;99.90
34829;DHT22;21042;47.620;12.188;2023-03-25T13:41:11;12.50;99.90
34829;DHT22;21042;47.620;12.188;2023-03-25T13:46:13;12.00;99.90
34829;DHT22;21042;47.620;12.188;2023-03-25T13:48:48;11.90;99.90
34829;DHT22;21042;47.620;12.188;2023-03-25T13:51:17;11.80;99.90
34829;DHT22;21042;47.620;12.188;2023-03-25T13:56:31;11.40;99.90
34829;DHT22;21042;47.620;12.188;2023-03-25T14:02:09;11.10;99.90
34829;DHT22;21042;47.620;12.188;2023-03-25T14:13:56;10.70;99.90
34829;DHT22;21042;47.620;12.188;2023-03-25T14:16:31;10.80;99.90
34829;DHT22;21042;47.620;12.188;2023-03-25T14:19:48;10.80;99.90
34829;DHT22;21042;47.620;12.188;2023-03-25T14:21:49;10.70;99.90
34829;DHT22;21042;47.620;12.188;2023-03-25T14:26:53;10.40;99.90
34829;DHT22;21042;47.620;12.188;2023-03-25T14:29:35;10.70;99.90
34829;DHT22;21042;47.620;12.188;2023-03-25T14:34:51;11.40;99.90
34829;DHT22;21042;47.620;12.188;2023-03-25T14:37:24;11.40;99.90
34829;DHT22;21042;47.620;12.188;2023-03-25T14:39:57;11.40;99.90
34829;DHT22;21042;47.620;12.188;2023-03-25T14:42:28;11.40;99.90
34829;DHT22;21042;47.620;12.188;2023-03-25T14:45:32;11.60;99.90
34829;DHT22;21042;47.620;12.188;2023-03-25T14:47:59;11.50;99.90
34829;DHT22;21042;47.620;12.188;2023-03-25T14:53:11;11.80;99.90
34829;DHT22;21042;47.620;12.188;2023-03-25T14:55:43;11.90;99.90
34829;DHT22;21042;47.620;12.188;2023-03-25T14:58:19;12.00;99.90
34829;DHT22;21042;47.620;12.188;2023-03-25T15:00:53;12.00;99.90
34829;DHT22;21042;47.620;12.188;2023-03-25T15:03:21;12.20;99.90
34829;DHT22;21042;47.620;12.188;2023-03-25T15:05:54;12.50;99.90
34829;DHT22;21042;47.620;12.188;2023-03-25T15:08:34;12.70;99.90
34829;DHT22;21042;47.620;12.188;2023-03-25T15:11:13;12.80;99.90
34829;DHT22;21042;47.620;12.188;2023-03-25T15:13:47;13.00;99.90
34829;DHT22;21042;47.620;12.188;2023-03-25T15:19:17;13.40;99.90
34829;DHT22;21042;47.620;12.188;2023-03-25T15:24:33;13.40;99.50
34829;DHT22;21042;47.620;12.188;2023-03-25T15:27:23;13.20;99.90
34829;DHT22;21042;47.620;12.188;2023-03-25T15:30:02;13.20;99.90
34829;DHT22;21042;47.620;12.188;2023-03-25T15:36:03;13.20;99.90
34829;DHT22;21042;47.620;12.188;2023-03-25T15:41:19;12.80;99.90
34829;DHT22;21042;47.620;12.188;2023-03-25T15:46:49;12.30;99.90
34829;DHT22;21042;47.620;12.188;2023-03-25T15:52:02;11.90;99.90
34829;DHT22;21042;47.620;12.188;2023-03-25T15:54:43;11.70;99.90
34829;DHT22;21042;47.620;12.188;2023-03-25T16:05:30;12.20;99.90
34829;DHT22;21042;47.620;12.188;2023-03-25T16:07:59;12.20;99.90
34829;DHT22;21042;47.620;12.188;2023-03-25T16:10:32;12.30;99.90
34829;DHT22;21042;47.620;12.188;2023-03-25T16:13:09;12.50;99.90
34829;DHT22;21042;47.620;12.188;2023-03-25T16:15:36;13.00;99.90
34829;DHT22;21042;47.620;12.188;2023-03-25T16:18:06;13.50;99.90
34829;DHT22;21042;47.620;12.188;2023-03-25T16:20:34;13.90;99.00
34829;DHT22;21042;47.620;12.188;2023-03-25T16:23:03;14.10;99.60
34829;DHT22;21042;47.620;12.188;2023-03-25T16:25:35;14.80;96.90
34829;DHT22;21042;47.620;12.188;2023-03-25T16:28:07;15.20;95.90
34829;DHT22;21042;47.620;12.188;2023-03-25T16:30:40;15.10;95.80
34829;DHT22;21042;47.620;12.188;2023-03-25T16:35:41;16.10;95.10
34829;DHT22;21042;47.620;12.188;2023-03-25T16:38:17;16.80;93.10
34829;DHT22;21042;47.620;12.188;2023-03-25T16:40:45;17.40;90.80
34829;DHT22;21042;47.620;12.188;2023-03-25T16:43:18;17.30;90.70
34829;DHT22;21042;47.620;12.188;2023-03-25T16:45:47;16.70;91.80
34829;DHT22;21042;47.620;12.188;2023-03-25T16:48:25;16.40;92.70
34829;DHT22;21042;47.620;12.188;2023-03-25T16:50:56;15.60;93.00
34829;DHT22;21042;47.620;12.188;2023-03-25T16:53:24;13.80;95.80
34829;DHT22;21042;47.620;12.188;2023-03-25T16:56:03;12.90;97.00
34829;DHT22;21042;47.620;12.188;2023-03-25T16:59:02;12.20;98.40
34829;DHT22;21042;47.620;12.188;2023-03-25T17:01:39;11.60;99.90
34829;DHT22;21042;47.620;12.188;2023-03-25T17:04:25;11.30;99.90
34829;DHT22;21042;47.620;12.188;2023-03-25T17:06:55;11.00;99.90
34829;DHT22;21042;47.620;12.188;2023-03-25T17:09:26;10.80;99.90
34829;DHT22;21042;47.620;12.188;2023-03-25T17:12:01;10.60;99.90
34829;DHT22;21042;47.620;12.188;2023-03-25T17:14:35;10.40;99.90
34829;DHT22;21042;47.620;12.188;2023-03-25T17:17:30;10.10;99.90
34829;DHT22;21042;47.620;12.188;2023-03-25T17:20:10;10.00;99.90
34829;DHT22;21042;47.620;12.188;2023-03-25T17:22:55;9.90;99.90
34829;DHT22;21042;47.620;12.188;2023-03-25T17:25:26;9.80;99.90
34829;DHT22;21042;47.620;12.188;2023-03-25T17:28:04;9.60;99.90
34829;DHT22;21042;47.620;12.188;2023-03-25T17:33:17;9.60;99.90
34829;DHT22;21042;47.620;12.188;2023-03-25T17:35:52;9.50;99.90
34829;DHT22;21042;47.620;12.188;2023-03-25T17:38:33;9.50;99.90
34829;DHT22;21042;47.620;12.188;2023-03-25T17:41:07;9.30;99.90
34829;DHT22;21042;47.620;12.188;2023-03-25T17:43:46;9.00;99.90
34829;DHT22;21042;47.620;12.188;2023-03-25T17:46:19;9.00;99.90
34829;DHT22;21042;47.620;12.188;2023-03-25T17:48:47;9.00;99.90
34829;DHT22;21042;47.620;12.188;2023-03-25T17:51:16;8.90;99.90
34829;DHT22;21042;47.620;12.188;2023-03-25T17:53:44;8.90;99.90
34829;DHT22;21042;47.620;12.188;2023-03-25T17:56:11;8.80;99.90
34829;DHT22;21042;47.620;12.188;2023-03-25T17:58:39;8.60;99.90
34829;DHT22;21042;47.620;12.188;2023-03-25T18:01:05;8.50;99.90
34829;DHT22;21042;47.620;12.188;2023-03-25T18:03:33;8.40;99.90
34829;DHT22;21042;47.620;12.188;2023-03-25T18:06:00;8.30;99.90
34829;DHT22;21042;47.620;12.188;2023-03-25T18:08:28;8.20;99.90
34829;DHT22;21042;47.620;12.188;2023-03-25T18:10:54;8.20;99.90
34829;DHT22;21042;47.620;12.188;2023-03-25T18:13:22;8.40;99.90
34829;DHT22;21042;47.620;12.188;2023-03-25T18:15:53;8.20;99.90
34829;DHT22;21042;47.620;12.188;2023-03-25T18:18:23;8.20;99.90
34829;DHT22;21042;47.620;12.188;2023-03-25T18:20:52;8.10;99.90
34829;DHT22;21042;47.620;12.188;2023-03-25T18:23:22;8.00;99.90